createdAt,value
2023-02-26T00:01:22.099Z,63.58
2023-02-26T00:03:49.036Z,64.10
2023-02-26T00:06:15.386Z,64.43
2023-02-26T00:08:41.731Z,63.47
2023-02-26T00:11:08.875Z,63.89
2023-02-26T00:13:39.229Z,64.03
2023-02-26T00:16:10.670Z,64.23
2023-02-26T00:18:37.192Z,63.98
2023-02-26T00:21:03.641Z,64.45
2023-02-26T00:23:30.000Z,64.11
2023-02-26T00:25:57.950Z,64.19
2023-02-26T00:28:24.411Z,64.43
2023-02-26T00:30:50.868Z,63.38
2023-02-26T00:33:17.285Z,64.23
2023-02-26T00:35:44.063Z,63.83
2023-02-26T00:38:11.151Z,63.89
2023-02-26T00:40:48.220Z,63.83
2023-02-26T00:43:16.026Z,63.59
2023-02-26T00:45:51.644Z,64.42
2023-02-26T00:48:26.940Z,64.08
2023-02-26T00:51:02.523Z,64.05
2023-02-26T00:53:31.695Z,64.32
2023-02-26T00:55:57.972Z,64.37
2023-02-26T00:58:24.292Z,63.98
2023-02-26T01:00:50.611Z,64.77
2023-02-26T01:03:17.029Z,64.70
2023-02-26T01:05:43.664Z,64.25
2023-02-26T01:08:36.378Z,65.20
2023-02-26T01:11:02.916Z,64.64
2023-02-26T01:13:29.318Z,64.14
2023-02-26T01:16:17.720Z,64.63
2023-02-26T01:18:56.282Z,63.92
2023-02-26T01:21:30.761Z,64.47
2023-02-26T01:23:57.196Z,64.79
2023-02-26T01:26:26.666Z,64.61
2023-02-26T01:28:53.575Z,64.19
2023-02-26T01:31:43.007Z,63.80
2023-02-26T01:34:18.297Z,64.71
2023-02-26T01:36:51.237Z,63.59
2023-02-26T01:39:26.778Z,64.57
2023-02-26T01:42:00.383Z,63.65
2023-02-26T01:44:26.643Z,64.54
2023-02-26T01:47:04.820Z,64.39
2023-02-26T01:49:31.562Z,63.84
2023-02-26T01:52:03.259Z,63.71
2023-02-26T01:54:31.431Z,63.40
2023-02-26T01:57:17.410Z,63.77
2023-02-26T01:59:46.392Z,63.74
2023-02-26T02:02:16.235Z,64.01
2023-02-26T02:04:43.893Z,63.20
2023-02-26T02:07:10.393Z,63.02
2023-02-26T02:09:36.736Z,63.40
2023-02-26T02:12:02.997Z,63.38
2023-02-26T02:14:46.344Z,62.76
2023-02-26T02:17:17.310Z,63.00
2023-02-26T02:19:43.737Z,62.81
2023-02-26T02:22:22.206Z,62.89
2023-02-26T02:25:06.520Z,63.60
2023-02-26T02:27:42.929Z,63.73
2023-02-26T02:30:27.752Z,63.29
2023-02-26T02:32:59.399Z,62.97
2023-02-26T02:35:35.726Z,63.68
2023-02-26T02:38:11.848Z,63.28
2023-02-26T02:40:41.022Z,63.54
2023-02-26T02:43:10.639Z,62.42
2023-02-26T02:45:59.816Z,63.39
2023-02-26T02:48:31.500Z,63.73
2023-02-26T02:51:00.190Z,63.02
2023-02-26T02:53:34.003Z,63.33
2023-02-26T02:56:07.178Z,62.67
2023-02-26T02:58:37.526Z,62.81
2023-02-26T03:01:06.505Z,63.09
2023-02-26T03:03:41.874Z,62.88
2023-02-26T03:06:08.398Z,62.65
2023-02-26T03:08:37.237Z,62.42
2023-02-26T03:11:03.709Z,63.39
2023-02-26T03:13:30.024Z,62.94
2023-02-26T03:15:59.080Z,62.63
2023-02-26T03:18:38.781Z,63.34
2023-02-26T03:21:10.026Z,62.41
2023-02-26T03:23:40.289Z,62.64
2023-02-26T03:26:19.311Z,63.12
2023-02-26T03:28:52.785Z,63.21
2023-02-26T03:31:35.579Z,62.82
2023-02-26T03:34:17.872Z,62.68
2023-02-26T03:36:49.555Z,62.50
2023-02-26T03:39:15.807Z,62.95
2023-02-26T03:41:47.967Z,62.64
2023-02-26T03:44:19.502Z,62.66
2023-02-26T03:46:48.435Z,63.31
2023-02-26T03:49:18.665Z,62.53
2023-02-26T03:51:46.062Z,62.63
2023-02-26T03:54:28.608Z,62.64
2023-02-26T03:56:54.991Z,62.87
2023-02-26T03:59:21.414Z,62.55
2023-02-26T04:01:53.936Z,62.31
2023-02-26T04:04:35.692Z,62.22
2023-02-26T04:07:02.496Z,62.24
2023-02-26T04:09:28.871Z,62.58
2023-02-26T04:11:56.867Z,62.70
2023-02-26T04:14:23.166Z,62.70
2023-02-26T04:16:49.538Z,62.56
2023-02-26T04:19:15.944Z,62.73
2023-02-26T04:21:42.286Z,62.64
2023-02-26T04:24:08.696Z,62.60
2023-02-26T04:26:35.087Z,62.32
2023-02-26T04:29:01.464Z,61.97
2023-02-26T04:31:27.830Z,62.32
2023-02-26T04:33:54.667Z,62.91
2023-02-26T04:36:21.059Z,62.39
2023-02-26T04:38:47.526Z,61.83
2023-02-26T04:41:13.910Z,63.07
2023-02-26T04:43:40.214Z,62.02
2023-02-26T04:46:06.569Z,62.47
2023-02-26T04:48:32.916Z,62.41
2023-02-26T04:50:59.558Z,61.73
2023-02-26T04:53:25.857Z,61.06
2023-02-26T04:55:52.575Z,61.13
2023-02-26T04:58:20.118Z,60.83
2023-02-26T05:00:50.318Z,60.74
2023-02-26T05:03:16.802Z,61.14
2023-02-26T05:05:43.475Z,61.81
2023-02-26T05:08:10.098Z,61.52
2023-02-26T05:10:36.510Z,61.60
2023-02-26T05:13:02.823Z,61.57
2023-02-26T05:15:29.124Z,61.47
2023-02-26T05:17:55.490Z,61.04
2023-02-26T05:20:21.949Z,61.20
2023-02-26T05:22:48.438Z,60.55
2023-02-26T05:25:14.772Z,61.27
2023-02-26T05:27:42.444Z,61.29
2023-02-26T05:30:09.546Z,60.70
2023-02-26T05:32:36.216Z,60.01
2023-02-26T05:35:02.485Z,60.14
2023-02-26T05:37:28.792Z,60.36
2023-02-26T05:39:55.075Z,60.04
2023-02-26T05:42:21.368Z,60.50
2023-02-26T05:44:47.648Z,60.17
2023-02-26T05:47:14.000Z,60.40
2023-02-26T05:49:40.310Z,60.72
2023-02-26T05:52:06.589Z,60.16
2023-02-26T05:54:32.896Z,60.60
2023-02-26T05:56:59.268Z,59.93
2023-02-26T05:59:25.804Z,59.88
2023-02-26T06:01:52.209Z,59.87
2023-02-26T06:04:18.526Z,60.41
2023-02-26T06:06:45.004Z,60.48
2023-02-26T06:09:11.534Z,60.75
2023-02-26T06:11:39.565Z,60.57
2023-02-26T06:14:06.207Z,60.09
2023-02-26T06:16:32.872Z,60.54
2023-02-26T06:18:59.338Z,60.44
2023-02-26T06:21:25.624Z,60.98
2023-02-26T06:23:51.912Z,60.47
2023-02-26T06:26:18.211Z,60.47
2023-02-26T06:28:44.889Z,61.04
2023-02-26T06:31:11.203Z,61.79
2023-02-26T06:33:37.493Z,61.47
2023-02-26T06:36:03.994Z,61.10
2023-02-26T06:38:30.298Z,61.78
2023-02-26T06:40:56.607Z,61.76
2023-02-26T06:43:22.939Z,61.38
2023-02-26T06:45:49.558Z,61.04
2023-02-26T06:48:16.291Z,61.14
2023-02-26T06:50:42.850Z,61.87
2023-02-26T06:53:09.186Z,61.94
2023-02-26T06:55:35.524Z,61.20
2023-02-26T06:58:01.905Z,61.79
2023-02-26T07:00:28.238Z,61.29
2023-02-26T07:02:54.539Z,61.62
2023-02-26T07:05:21.153Z,61.90
2023-02-26T07:07:47.914Z,61.27
2023-02-26T07:10:14.210Z,61.81
2023-02-26T07:12:40.589Z,61.60
2023-02-26T07:15:07.169Z,61.87
2023-02-26T07:17:33.467Z,61.95
2023-02-26T07:20:06.080Z,61.47
2023-02-26T07:22:33.291Z,61.84
2023-02-26T07:25:00.342Z,61.66
2023-02-26T07:27:26.698Z,61.76
2023-02-26T07:29:53.004Z,61.62
2023-02-26T07:32:19.368Z,62.57
2023-02-26T07:34:45.691Z,61.84
2023-02-26T07:37:12.079Z,61.96
2023-02-26T07:39:38.408Z,61.34
2023-02-26T07:42:05.144Z,62.15
2023-02-26T07:44:31.564Z,61.08
2023-02-26T07:46:57.833Z,61.48
2023-02-26T07:49:25.180Z,61.67
2023-02-26T07:51:51.520Z,61.11
2023-02-26T07:54:17.984Z,61.71
2023-02-26T07:56:44.765Z,62.15
2023-02-26T07:59:11.510Z,62.23
2023-02-26T08:01:38.064Z,61.68
2023-02-26T08:04:04.862Z,62.15
2023-02-26T08:06:31.229Z,61.61
2023-02-26T08:08:57.563Z,61.40
2023-02-26T08:11:23.931Z,61.61
2023-02-26T08:13:50.294Z,62.12
2023-02-26T08:16:16.594Z,61.72
2023-02-26T08:18:42.904Z,61.39
2023-02-26T08:21:09.239Z,61.65
2023-02-26T08:23:35.545Z,61.25
2023-02-26T08:26:06.121Z,61.90
2023-02-26T08:28:32.946Z,61.57
2023-02-26T08:31:00.081Z,61.07
2023-02-26T08:33:26.542Z,61.15
2023-02-26T08:35:53.651Z,60.84
2023-02-26T08:38:20.176Z,60.81
2023-02-26T08:40:49.260Z,60.78
2023-02-26T08:43:15.801Z,60.53
2023-02-26T08:45:42.110Z,60.47
2023-02-26T08:48:10.678Z,61.52
2023-02-26T08:50:37.278Z,61.68
2023-02-26T08:53:03.652Z,61.67
2023-02-26T08:55:30.397Z,61.71
2023-02-26T08:57:56.699Z,60.29
2023-02-26T09:00:23.074Z,60.57
2023-02-26T09:02:49.742Z,60.47
2023-02-26T09:05:16.501Z,60.48
2023-02-26T09:07:43.279Z,60.42
2023-02-26T09:10:10.441Z,60.86
2023-02-26T09:12:37.691Z,60.73
2023-02-26T09:15:04.733Z,60.50
2023-02-26T09:17:31.185Z,61.00
2023-02-26T09:19:57.725Z,60.10
2023-02-26T09:22:24.083Z,59.94
2023-02-26T09:24:50.774Z,60.53
2023-02-26T09:27:17.580Z,60.27
2023-02-26T09:29:43.932Z,59.46
2023-02-26T09:32:10.342Z,59.82
2023-02-26T09:34:37.595Z,59.24
2023-02-26T09:37:05.001Z,58.96
2023-02-26T09:39:31.527Z,58.92
2023-02-26T09:42:00.343Z,59.01
2023-02-26T09:44:28.356Z,59.03
2023-02-26T09:47:02.246Z,59.17
2023-02-26T09:49:28.548Z,58.71
2023-02-26T09:51:58.500Z,58.60
2023-02-26T09:54:26.955Z,58.64
2023-02-26T09:56:55.128Z,57.25
2023-02-26T09:59:21.496Z,58.06
2023-02-26T10:02:06.650Z,58.15
2023-02-26T10:04:35.820Z,57.35
2023-02-26T10:07:31.694Z,56.41
2023-02-26T10:10:10.183Z,57.59
2023-02-26T10:12:40.292Z,57.77
2023-02-26T10:15:07.398Z,58.48
2023-02-26T10:17:45.318Z,57.48
2023-02-26T10:20:15.970Z,56.98
2023-02-26T10:22:52.193Z,58.13
2023-02-26T10:25:23.427Z,56.59
2023-02-26T10:27:53.463Z,56.07
2023-02-26T10:30:43.956Z,57.18
2023-02-26T10:33:17.269Z,56.99
2023-02-26T10:35:54.180Z,56.46
2023-02-26T10:38:24.748Z,56.01
2023-02-26T10:40:55.383Z,55.88
2023-02-26T10:43:22.885Z,56.28
2023-02-26T10:46:07.823Z,55.96
2023-02-26T10:48:34.129Z,55.42
2023-02-26T10:51:01.539Z,55.09
2023-02-26T10:53:30.756Z,54.62
2023-02-26T10:56:16.045Z,54.80
2023-02-26T10:58:42.445Z,54.83
2023-02-26T11:01:16.016Z,55.07
2023-02-26T11:03:44.317Z,54.76
2023-02-26T11:06:11.942Z,54.99
2023-02-26T11:08:43.531Z,54.80
2023-02-26T11:11:09.914Z,54.18
2023-02-26T11:13:37.718Z,53.60
2023-02-26T11:16:13.170Z,54.21
2023-02-26T11:18:41.328Z,53.47
2023-02-26T11:21:08.767Z,53.92
2023-02-26T11:23:35.699Z,52.11
2023-02-26T11:26:13.945Z,52.18
2023-02-26T11:28:47.699Z,51.20
2023-02-26T11:31:17.415Z,51.82
2023-02-26T11:33:45.093Z,51.67
2023-02-26T11:36:14.133Z,52.11
2023-02-26T11:38:40.933Z,52.52
2023-02-26T11:41:07.562Z,51.50
2023-02-26T11:43:36.528Z,51.45
2023-02-26T11:46:03.345Z,50.59
2023-02-26T11:48:37.044Z,50.73
2023-02-26T11:51:04.821Z,50.45
2023-02-26T11:53:33.782Z,51.64
2023-02-26T11:56:01.871Z,50.96
2023-02-26T11:58:29.318Z,50.81
2023-02-26T12:00:58.549Z,50.08
2023-02-26T12:03:29.399Z,49.65
2023-02-26T12:05:57.267Z,48.98
2023-02-26T12:08:30.063Z,47.59
2023-02-26T12:11:08.281Z,46.90
2023-02-26T12:13:58.238Z,46.80
2023-02-26T12:16:27.673Z,46.55
2023-02-26T12:19:01.784Z,46.54
2023-02-26T12:21:54.292Z,46.67
2023-02-26T12:24:23.352Z,49.33
2023-02-26T12:27:03.531Z,48.22
2023-02-26T12:29:47.766Z,48.08
2023-02-26T12:32:23.400Z,47.97
2023-02-26T12:34:55.784Z,47.44
2023-02-26T12:37:40.902Z,47.25
2023-02-26T12:40:30.719Z,46.91
2023-02-26T12:43:06.982Z,48.24
2023-02-26T12:45:47.676Z,48.36
2023-02-26T12:48:13.939Z,48.18
2023-02-26T12:50:55.514Z,48.16
2023-02-26T12:53:40.551Z,48.33
2023-02-26T12:56:12.972Z,47.85
2023-02-26T12:58:42.261Z,47.15
2023-02-26T13:01:11.745Z,47.79
2023-02-26T13:03:44.998Z,47.07
2023-02-26T13:06:32.598Z,48.54
2023-02-26T13:08:58.958Z,47.27
2023-02-26T13:11:25.664Z,47.43
2023-02-26T13:13:59.888Z,47.26
2023-02-26T13:16:39.183Z,47.79
2023-02-26T13:19:13.348Z,47.72
2023-02-26T13:21:43.505Z,47.19
2023-02-26T13:24:21.679Z,47.35
2023-02-26T13:26:48.901Z,47.75
2023-02-26T13:29:17.371Z,48.00
2023-02-26T13:31:48.517Z,47.24
2023-02-26T13:34:21.757Z,47.54
2023-02-26T13:36:48.783Z,47.82
2023-02-26T13:39:24.767Z,48.23
2023-02-26T13:42:11.336Z,48.48
2023-02-26T13:44:52.560Z,48.35
2023-02-26T13:47:18.879Z,49.18
2023-02-26T13:49:49.013Z,49.61
2023-02-26T13:52:28.868Z,48.99
2023-02-26T13:54:55.712Z,47.81
2023-02-26T13:57:25.838Z,48.02
2023-02-26T13:59:54.366Z,47.63
2023-02-26T14:02:20.650Z,48.89
2023-02-26T14:04:51.617Z,48.91
2023-02-26T14:07:37.857Z,48.76
2023-02-26T14:10:14.594Z,49.31
2023-02-26T14:12:44.326Z,49.44
2023-02-26T14:15:13.698Z,49.40
2023-02-26T14:17:41.603Z,49.16
2023-02-26T14:20:17.022Z,49.57
2023-02-26T14:22:46.716Z,49.99
2023-02-26T14:25:12.976Z,50.34
2023-02-26T14:27:40.770Z,50.59
2023-02-26T14:30:10.069Z,50.45
2023-02-26T14:32:56.150Z,50.46
2023-02-26T14:35:28.073Z,50.35
2023-02-26T14:38:06.168Z,50.52
2023-02-26T14:40:37.196Z,50.60
2023-02-26T14:43:05.176Z,51.09
2023-02-26T14:45:35.036Z,51.60
2023-02-26T14:48:03.593Z,50.89
2023-02-26T14:50:37.004Z,51.87
2023-02-26T14:53:06.412Z,51.73
2023-02-26T14:55:59.076Z,51.62
2023-02-26T14:58:28.392Z,51.75
2023-02-26T15:00:57.860Z,52.26
2023-02-26T15:03:27.267Z,52.96
2023-02-26T15:05:53.548Z,53.27
2023-02-26T15:08:25.917Z,52.67
2023-02-26T15:10:52.272Z,51.91
2023-02-26T15:13:21.559Z,51.91
2023-02-26T15:16:06.806Z,52.37
2023-02-26T15:18:36.111Z,52.30
2023-02-26T15:21:05.408Z,52.12
2023-02-26T15:23:37.852Z,52.01
2023-02-26T15:26:05.340Z,52.64
2023-02-26T15:28:36.729Z,52.27
2023-02-26T15:31:06.119Z,52.31
2023-02-26T15:33:33.283Z,52.47
2023-02-26T15:36:00.605Z,52.91
2023-02-26T15:38:27.117Z,53.21
2023-02-26T15:40:54.729Z,53.31
2023-02-26T15:43:23.830Z,53.00
2023-02-26T15:45:52.284Z,53.02
2023-02-26T15:48:25.694Z,52.97
2023-02-26T15:50:58.832Z,52.62
2023-02-26T15:53:32.918Z,52.88
2023-02-26T15:56:01.683Z,52.96
2023-02-26T15:58:34.847Z,52.80
2023-02-26T16:01:02.116Z,53.17
2023-02-26T16:03:30.480Z,53.87
2023-02-26T16:05:58.121Z,53.88
2023-02-26T16:08:24.582Z,53.59
2023-02-26T16:10:52.041Z,54.17
2023-02-26T16:13:24.335Z,54.13
2023-02-26T16:15:50.824Z,53.69
2023-02-26T16:18:22.805Z,54.04
2023-02-26T16:20:52.364Z,54.16
2023-02-26T16:23:23.352Z,55.40
2023-02-26T16:26:00.743Z,54.21
2023-02-26T16:28:30.787Z,54.35
2023-02-26T16:30:59.333Z,54.82
2023-02-26T16:33:26.528Z,55.56
2023-02-26T16:35:54.647Z,54.95
2023-02-26T16:38:22.376Z,54.64
2023-02-26T16:40:56.385Z,55.85
2023-02-26T16:43:23.296Z,54.98
2023-02-26T16:45:50.834Z,55.74
2023-02-26T16:48:27.382Z,55.24
2023-02-26T16:50:57.097Z,55.18
2023-02-26T16:53:25.091Z,55.54
2023-02-26T16:55:53.589Z,55.69
2023-02-26T16:58:21.873Z,54.95
2023-02-26T17:00:51.094Z,55.30
2023-02-26T17:03:20.038Z,55.71
2023-02-26T17:06:01.934Z,55.62
2023-02-26T17:08:32.190Z,55.74
2023-02-26T17:11:01.842Z,56.27
2023-02-26T17:13:29.586Z,56.21
2023-02-26T17:15:59.219Z,55.98
2023-02-26T17:18:25.811Z,56.35
2023-02-26T17:20:52.461Z,57.47
2023-02-26T17:23:19.493Z,57.82
2023-02-26T17:25:47.380Z,58.02
2023-02-26T17:28:17.434Z,58.30
2023-02-26T17:30:43.821Z,59.12
2023-02-26T17:33:12.772Z,59.78
2023-02-26T17:35:39.608Z,60.15
2023-02-26T17:38:06.384Z,60.26
2023-02-26T17:40:36.539Z,60.89
2023-02-26T17:43:04.613Z,61.69
2023-02-26T17:45:32.421Z,62.44
2023-02-26T17:47:58.791Z,62.45
2023-02-26T17:50:40.381Z,63.05
2023-02-26T17:53:07.651Z,63.15
2023-02-26T17:55:35.741Z,62.87
2023-02-26T17:58:02.057Z,63.23
2023-02-26T18:00:28.683Z,63.20
2023-02-26T18:02:55.038Z,63.60
2023-02-26T18:05:21.502Z,63.31
2023-02-26T18:07:48.704Z,63.41
2023-02-26T18:10:21.365Z,62.83
2023-02-26T18:12:48.736Z,62.96
2023-02-26T18:15:16.000Z,63.56
2023-02-26T18:17:43.111Z,63.36
2023-02-26T18:20:15.770Z,62.11
2023-02-26T18:22:42.081Z,61.64
2023-02-26T18:25:09.454Z,61.50
2023-02-26T18:27:35.845Z,61.84
2023-02-26T18:30:04.359Z,61.57
2023-02-26T18:32:30.790Z,61.79
2023-02-26T18:34:57.178Z,62.71
2023-02-26T18:37:27.118Z,64.24
2023-02-26T18:39:53.782Z,64.35
2023-02-26T18:42:20.162Z,63.99
2023-02-26T18:44:46.746Z,62.79
2023-02-26T18:47:13.227Z,61.85
2023-02-26T18:49:39.528Z,63.62
2023-02-26T18:52:05.878Z,63.30
2023-02-26T18:54:32.202Z,64.39
2023-02-26T18:56:58.801Z,63.80
2023-02-26T18:59:25.224Z,64.22
2023-02-26T19:01:51.715Z,64.72
2023-02-26T19:04:18.046Z,64.06
2023-02-26T19:06:44.398Z,64.48
2023-02-26T19:09:10.792Z,64.55
2023-02-26T19:11:38.120Z,64.97
2023-02-26T19:14:04.936Z,64.68
2023-02-26T19:16:35.163Z,65.19
2023-02-26T19:19:01.906Z,64.42
2023-02-26T19:21:28.422Z,65.14
2023-02-26T19:23:54.840Z,65.00
2023-02-26T19:26:22.734Z,65.82
2023-02-26T19:28:49.051Z,65.40
2023-02-26T19:31:16.773Z,65.42
2023-02-26T19:33:43.322Z,65.99
2023-02-26T19:36:09.839Z,66.50
2023-02-26T19:38:36.173Z,66.57
2023-02-26T19:41:02.530Z,66.43
2023-02-26T19:43:29.145Z,67.11
2023-02-26T19:45:56.100Z,66.70
2023-02-26T19:48:22.752Z,67.19
2023-02-26T19:50:52.354Z,66.79
2023-02-26T19:53:19.438Z,66.89
2023-02-26T19:55:45.799Z,66.93
2023-02-26T19:58:14.045Z,66.12
2023-02-26T20:00:40.485Z,65.98
2023-02-26T20:03:07.060Z,65.56
2023-02-26T20:05:34.900Z,66.55
2023-02-26T20:08:01.752Z,65.86
2023-02-26T20:10:29.134Z,65.72
2023-02-26T20:12:58.079Z,66.59
2023-02-26T20:15:24.764Z,66.13
2023-02-26T20:17:51.098Z,65.46
2023-02-26T20:20:17.642Z,65.75
2023-02-26T20:22:43.991Z,65.97
2023-02-26T20:25:10.357Z,66.01
2023-02-26T20:27:36.673Z,66.34
2023-02-26T20:30:03.867Z,65.93
2023-02-26T20:32:30.319Z,65.83
2023-02-26T20:34:56.799Z,66.03
2023-02-26T20:37:23.104Z,65.34
2023-02-26T20:39:49.429Z,65.29
2023-02-26T20:42:16.859Z,65.45
2023-02-26T20:44:43.185Z,65.34
2023-02-26T20:47:09.722Z,64.92
2023-02-26T20:49:36.023Z,64.66
2023-02-26T20:52:02.438Z,64.46
2023-02-26T20:54:28.800Z,64.32
2023-02-26T20:56:55.223Z,64.33
2023-02-26T20:59:21.653Z,63.90
2023-02-26T21:01:48.260Z,64.00
2023-02-26T21:04:14.735Z,63.51
2023-02-26T21:06:41.284Z,64.16
2023-02-26T21:09:10.874Z,63.96
2023-02-26T21:11:38.320Z,63.54
2023-02-26T21:14:05.739Z,63.74
2023-02-26T21:16:32.291Z,63.67
2023-02-26T21:19:00.259Z,63.42
2023-02-26T21:21:26.658Z,63.58
2023-02-26T21:23:53.215Z,63.29
2023-02-26T21:26:20.310Z,64.39
2023-02-26T21:28:48.298Z,63.64
2023-02-26T21:31:15.404Z,63.47
2023-02-26T21:33:41.756Z,64.16
2023-02-26T21:36:08.937Z,64.50
2023-02-26T21:38:35.337Z,64.30
2023-02-26T21:41:01.633Z,64.46
2023-02-26T21:43:27.954Z,64.18
2023-02-26T21:45:54.325Z,64.39
2023-02-26T21:48:20.825Z,64.41
2023-02-26T21:50:48.020Z,65.08
2023-02-26T21:53:14.315Z,65.21
2023-02-26T21:55:40.788Z,65.50
2023-02-26T21:58:07.106Z,66.36
2023-02-26T22:00:33.517Z,66.51
2023-02-26T22:02:59.969Z,66.48
2023-02-26T22:05:26.339Z,66.64
2023-02-26T22:07:52.874Z,66.95
2023-02-26T22:10:19.286Z,66.96
2023-02-26T22:12:45.688Z,66.75
2023-02-26T22:15:12.165Z,67.01
2023-02-26T22:17:38.472Z,67.08
2023-02-26T22:20:09.613Z,66.89
2023-02-26T22:22:37.096Z,67.50
2023-02-26T22:25:05.556Z,67.44
2023-02-26T22:27:32.354Z,67.54
2023-02-26T22:29:58.772Z,67.83
2023-02-26T22:32:25.653Z,67.79
2023-02-26T22:34:52.308Z,67.84
2023-02-26T22:37:19.078Z,68.68
2023-02-26T22:39:45.467Z,68.03
2023-02-26T22:42:11.911Z,68.47
2023-02-26T22:44:38.348Z,68.42
2023-02-26T22:47:04.758Z,68.68
2023-02-26T22:49:31.132Z,69.35
2023-02-26T22:51:57.476Z,69.33
2023-02-26T22:54:23.894Z,69.63
2023-02-26T22:56:50.367Z,69.16
2023-02-26T22:59:16.665Z,69.32
2023-02-26T23:01:43.392Z,69.33
2023-02-26T23:04:10.805Z,69.63
2023-02-26T23:06:37.262Z,69.71
2023-02-26T23:09:05.003Z,68.73
2023-02-26T23:11:31.788Z,69.16
2023-02-26T23:13:58.102Z,69.39
2023-02-26T23:16:24.423Z,69.61
2023-02-26T23:18:50.783Z,69.51
2023-02-26T23:21:17.196Z,70.19
2023-02-26T23:23:43.962Z,69.97
2023-02-26T23:26:10.442Z,69.80
2023-02-26T23:28:36.840Z,69.55
2023-02-26T23:31:05.311Z,70.06
2023-02-26T23:33:31.874Z,69.81
2023-02-26T23:35:58.168Z,69.95
2023-02-26T23:38:24.476Z,69.86
2023-02-26T23:40:50.904Z,69.89
2023-02-26T23:43:17.184Z,70.02
2023-02-26T23:45:44.058Z,70.01
2023-02-26T23:48:10.419Z,70.23
2023-02-26T23:50:36.782Z,69.84
2023-02-26T23:53:03.101Z,69.76
2023-02-26T23:55:29.391Z,69.56
2023-02-26T23:57:55.777Z,69.73
